Tropical Cyclones
[Index]
Main Index Home Page Stock Weather Photos Extreme Storms Discussion Storm News and Storm Chasing Reports Tropical Cyclones / Hurricanes / Typhoons Weather Data and Links Wild Fires / Bushfires Weather Observation Techniques Weather Picture Catalogue Tornado Pictures and Reports Stock Video Footage and DVDs for sale
Season 1977-1978 Tropical Cyclone TOM Track Map
Season 1977-1978 Summaries: [BoM-AU] [JTWC-AU] [JTWC-SIO] [JTWC-SPAC] [JTWC-SH]
<<- Previous TC | BoM 1977-1978 Season | Next TC ->>

click for intensity scale information  Lat/long Grid: Show Hide

 Date Labels: Show Hide

Bureau of Meteorology Tropical Cyclone Data

Name: TOM
Number: 575 / 197778_01

06 Nov 1977 23:00 UTC to 11 Nov 1977 23:00 UTC

    date/time    lat    long    hPa   cat  kts
1977-11-06 23    8.5   154.6   1000                     
1977-11-07 05    8.7   154.0   1000                     
1977-11-07 11    9.1   153.4   1000                     
1977-11-07 17    9.6   152.8   1000                     
1977-11-07 20    9.9   152.5   1000                     
1977-11-07 23   10.3   152.5    999                     
1977-11-08 02   10.6   152.6    997                     
1977-11-08 05   10.9   152.9    994    1                
1977-11-08 11   11.6   153.0    994    1                
1977-11-08 17   11.9   153.4    994    1                
1977-11-08 23   12.1   153.9    994    1                
1977-11-09 05   12.3   154.6    990    1                
1977-11-09 11   12.5   155.5    990    1                
1977-11-09 17   12.7   156.5    990    1                
1977-11-09 23   13.1   157.5    992    1                
1977-11-10 05   13.5   158.6    994    1                
1977-11-10 11   13.9   159.6    996                     
1977-11-10 14   14.1   160.0    996                     
1977-11-10 17   14.4   160.2    996                     
1977-11-10 20   14.7   160.3    996                     
1977-11-10 23   15.0   160.4    998                     
1977-11-11 05   15.5   160.4   1000                     
1977-11-11 11   16.0   160.2   1002                     
1977-11-11 17   17.2   160.0   1002                     
1977-11-11 23   18.5   159.7   1005                     
Winds are 10-min average.

Tropical cyclone tracks developed by Michael Bath using data from the Bureau of Meteorology and Google Maps.


[Australian Severe Weather index] [Copyright Notice] [Email Contacts] [Search This Site] [Privacy Policy]
Document: tropical_cyclone_tom.htm Updated: 30 May 2013